sensor_id;sensor_type;location;lat;lon;timestamp;pressure;altitude;pressure_sealevel;temperature;humidity
60089;BME280;45961;53.574;55.878;2023-07-29T00:00:35;99365.97;;;18.78;82.54
60089;BME280;45961;53.574;55.878;2023-07-29T00:01:36;99368.63;;;18.77;82.65
60089;BME280;45961;53.574;55.878;2023-07-29T00:02:37;99379.28;;;18.73;82.78
60089;BME280;45961;53.574;55.878;2023-07-29T00:03:37;99375.84;;;18.71;83.10
60089;BME280;45961;53.574;55.878;2023-07-29T00:04:38;99371.09;;;18.58;83.66
60089;BME280;45961;53.574;55.878;2023-07-29T00:05:41;99376.31;;;18.58;83.60
60089;BME280;45961;53.574;55.878;2023-07-29T00:06:41;99376.44;;;18.55;83.58
60089;BME280;45961;53.574;55.878;2023-07-29T00:07:42;99372.03;;;18.55;83.98
60089;BME280;45961;53.574;55.878;2023-07-29T00:08:43;99377.28;;;18.55;84.13
60089;BME280;45961;53.574;55.878;2023-07-29T00:09:44;99374.00;;;18.50;83.85
60089;BME280;45961;53.574;55.878;2023-07-29T00:10:44;99384.50;;;18.48;84.27
60089;BME280;45961;53.574;55.878;2023-07-29T00:11:45;99379.34;;;18.47;84.33
60089;BME280;45961;53.574;55.878;2023-07-29T00:12:46;99381.13;;;18.45;84.58
60089;BME280;45961;53.574;55.878;2023-07-29T00:13:47;99374.84;;;18.50;84.73
60089;BME280;45961;53.574;55.878;2023-07-29T00:14:47;99380.00;;;18.52;84.28
60089;BME280;45961;53.574;55.878;2023-07-29T00:15:48;99385.16;;;18.55;84.31
60089;BME280;45961;53.574;55.878;2023-07-29T00:16:49;99381.03;;;18.48;84.08
60089;BME280;45961;53.574;55.878;2023-07-29T00:17:50;99382.06;;;18.44;84.39
60089;BME280;45961;53.574;55.878;2023-07-29T00:18:51;99388.31;;;18.40;84.45
60089;BME280;45961;53.574;55.878;2023-07-29T00:19:51;99390.03;;;18.41;84.83
60089;BME280;45961;53.574;55.878;2023-07-29T00:20:52;99387.56;;;18.36;84.62
60089;BME280;45961;53.574;55.878;2023-07-29T00:21:53;99388.44;;;18.37;84.71
60089;BME280;45961;53.574;55.878;2023-07-29T00:22:54;99391.22;;;18.32;84.83
60089;BME280;45961;53.574;55.878;2023-07-29T00:23:55;99388.72;;;18.29;84.70
60089;BME280;45961;53.574;55.878;2023-07-29T00:24:58;99394.75;;;18.31;84.89
60089;BME280;45961;53.574;55.878;2023-07-29T00:25:59;99386.97;;;18.30;84.89
60089;BME280;45961;53.574;55.878;2023-07-29T00:27:00;99385.28;;;18.27;85.25
60089;BME280;45961;53.574;55.878;2023-07-29T00:28:01;99391.56;;;18.23;85.24
60089;BME280;45961;53.574;55.878;2023-07-29T00:29:02;99389.94;;;18.19;85.78
60089;BME280;45961;53.574;55.878;2023-07-29T00:30:03;99390.88;;;18.18;85.64
60089;BME280;45961;53.574;55.878;2023-07-29T00:31:04;99386.47;;;18.18;85.95
60089;BME280;45961;53.574;55.878;2023-07-29T00:32:05;99390.03;;;18.17;85.68
60089;BME280;45961;53.574;55.878;2023-07-29T00:33:06;99387.22;;;18.22;85.81
60089;BME280;45961;53.574;55.878;2023-07-29T00:34:06;99382.84;;;18.22;85.66
60089;BME280;45961;53.574;55.878;2023-07-29T00:35:07;99390.81;;;18.19;85.64
60089;BME280;45961;53.574;55.878;2023-07-29T00:36:08;99387.16;;;18.23;85.42
60089;BME280;45961;53.574;55.878;2023-07-29T00:37:09;99392.41;;;18.23;85.14
60089;BME280;45961;53.574;55.878;2023-07-29T00:38:11;99383.63;;;18.24;84.95
60089;BME280;45961;53.574;55.878;2023-07-29T00:39:11;99386.22;;;18.26;85.02
60089;BME280;45961;53.574;55.878;2023-07-29T00:40:16;99385.22;;;18.29;84.80
60089;BME280;45961;53.574;55.878;2023-07-29T00:41:20;99389.63;;;18.28;85.12
60089;BME280;45961;53.574;55.878;2023-07-29T00:42:21;99389.63;;;18.28;85.04
60089;BME280;45961;53.574;55.878;2023-07-29T00:43:22;99393.09;;;18.29;85.04
60089;BME280;45961;53.574;55.878;2023-07-29T00:44:23;99396.41;;;18.34;84.59
60089;BME280;45961;53.574;55.878;2023-07-29T00:45:24;99387.56;;;18.36;84.53
60089;BME280;45961;53.574;55.878;2023-07-29T00:46:27;99388.44;;;18.37;84.52
60089;BME280;45961;53.574;55.878;2023-07-29T00:47:28;99391.97;;;18.36;84.62
60089;BME280;45961;53.574;55.878;2023-07-29T00:48:29;99391.97;;;18.36;84.38
60089;BME280;45961;53.574;55.878;2023-07-29T00:49:30;99392.81;;;18.36;84.60
60089;BME280;45961;53.574;55.878;2023-07-29T00:50:33;99388.56;;;18.34;84.33
60089;BME280;45961;53.574;55.878;2023-07-29T00:51:35;99395.59;;;18.32;84.52
60089;BME280;45961;53.574;55.878;2023-07-29T00:52:35;99393.91;;;18.31;84.85
60089;BME280;45961;53.574;55.878;2023-07-29T00:53:36;99396.53;;;18.31;84.69
60089;BME280;45961;53.574;55.878;2023-07-29T00:54:39;99400.06;;;18.30;85.01
60089;BME280;45961;53.574;55.878;2023-07-29T00:55:40;99400.00;;;18.31;85.03
60089;BME280;45961;53.574;55.878;2023-07-29T00:56:41;99395.44;;;18.36;84.96
60089;BME280;45961;53.574;55.878;2023-07-29T00:57:42;99393.56;;;18.40;84.79
60089;BME280;45961;53.574;55.878;2023-07-29T00:58:45;99389.13;;;18.42;85.07
60089;BME280;45961;53.574;55.878;2023-07-29T00:59:46;99393.47;;;18.43;84.89
60089;BME280;45961;53.574;55.878;2023-07-29T01:00:48;99389.81;;;18.47;84.89
60089;BME280;45961;53.574;55.878;2023-07-29T01:01:49;99396.75;;;18.48;84.80
60089;BME280;45961;53.574;55.878;2023-07-29T01:02:50;99388.03;;;18.47;84.86
60089;BME280;45961;53.574;55.878;2023-07-29T01:03:50;99388.78;;;18.51;84.64
60089;BME280;45961;53.574;55.878;2023-07-29T01:04:54;99391.41;;;18.51;84.98
60089;BME280;45961;53.574;55.878;2023-07-29T01:05:59;99395.47;;;18.60;84.77
60089;BME280;45961;53.574;55.878;2023-07-29T01:07:06;99395.53;;;18.58;84.51
60089;BME280;45961;53.574;55.878;2023-07-29T01:08:14;99389.47;;;18.56;84.54
60089;BME280;45961;53.574;55.878;2023-07-29T01:09:30;99393.75;;;18.59;84.47
60089;BME280;45961;53.574;55.878;2023-07-29T01:12:50;99396.28;;;18.62;84.54
60089;BME280;45961;53.574;55.878;2023-07-29T01:13:55;99394.50;;;18.62;84.55
60089;BME280;45961;53.574;55.878;2023-07-29T01:15:01;99398.66;;;18.68;84.38
60089;BME280;45961;53.574;55.878;2023-07-29T01:16:12;99399.44;;;18.71;83.76
60089;BME280;45961;53.574;55.878;2023-07-29T01:17:20;99397.38;;;18.80;83.64
60089;BME280;45961;53.574;55.878;2023-07-29T01:18:23;99399.06;;;18.81;83.38
60089;BME280;45961;53.574;55.878;2023-07-29T01:19:32;99396.34;;;18.84;83.46
60089;BME280;45961;53.574;55.878;2023-07-29T01:20:38;99401.41;;;18.88;83.47
60089;BME280;45961;53.574;55.878;2023-07-29T01:21:40;99408.25;;;18.92;83.07
60089;BME280;45961;53.574;55.878;2023-07-29T01:22:41;99406.19;;;19.01;83.24
60089;BME280;45961;53.574;55.878;2023-07-29T01:23:42;99411.03;;;19.11;82.84
60089;BME280;45961;53.574;55.878;2023-07-29T01:24:43;99414.09;;;19.22;83.09
60089;BME280;45961;53.574;55.878;2023-07-29T01:25:44;99409.28;;;19.34;81.91
60089;BME280;45961;53.574;55.878;2023-07-29T01:26:44;99415.19;;;19.39;81.69
60089;BME280;45961;53.574;55.878;2023-07-29T01:27:45;99417.69;;;19.42;81.79
60089;BME280;45961;53.574;55.878;2023-07-29T01:28:46;99408.78;;;19.46;81.53
60089;BME280;45961;53.574;55.878;2023-07-29T01:29:47;99419.88;;;19.53;81.13
60089;BME280;45961;53.574;55.878;2023-07-29T01:30:49;99418.06;;;19.55;80.99
60089;BME280;45961;53.574;55.878;2023-07-29T01:31:50;99419.88;;;19.53;80.55
60089;BME280;45961;53.574;55.878;2023-07-29T01:33:04;99414.31;;;19.62;80.51
60089;BME280;45961;53.574;55.878;2023-07-29T01:34:09;99419.09;;;19.72;80.03
60089;BME280;45961;53.574;55.878;2023-07-29T01:35:19;99413.59;;;19.79;79.75
60089;BME280;45961;53.574;55.878;2023-07-29T01:36:22;99415.09;;;19.84;79.49
60089;BME280;45961;53.574;55.878;2023-07-29T01:37:26;99422.91;;;19.86;79.11
60089;BME280;45961;53.574;55.878;2023-07-29T01:38:29;99425.28;;;19.92;79.06
60089;BME280;45961;53.574;55.878;2023-07-29T01:39:35;99425.75;;;20.02;78.84
60089;BME280;45961;53.574;55.878;2023-07-29T01:40:37;99427.47;;;20.03;78.61
60089;BME280;45961;53.574;55.878;2023-07-29T01:41:38;99428.22;;;20.06;78.59
60089;BME280;45961;53.574;55.878;2023-07-29T01:42:42;99425.31;;;20.12;78.20
60089;BME280;45961;53.574;55.878;2023-07-29T01:43:43;99423.31;;;20.17;78.28
60089;BME280;45961;53.574;55.878;2023-07-29T01:44:44;99419.59;;;20.23;77.69
60089;BME280;45961;53.574;55.878;2023-07-29T01:45:45;99424.66;;;20.28;77.72
60089;BME280;45961;53.574;55.878;2023-07-29T01:46:46;99422.63;;;20.34;77.44
60089;BME280;45961;53.574;55.878;2023-07-29T01:47:47;99425.94;;;20.38;77.31
60089;BME280;45961;53.574;55.878;2023-07-29T01:48:49;99430.00;;;20.45;76.96
60089;BME280;45961;53.574;55.878;2023-07-29T01:49:50;99424.63;;;20.48;77.35
60089;BME280;45961;53.574;55.878;2023-07-29T01:50:51;99425.59;;;20.66;76.60
60089;BME280;45961;53.574;55.878;2023-07-29T01:51:51;99424.75;;;21.22;74.71
60089;BME280;45961;53.574;55.878;2023-07-29T01:52:52;99416.75;;;21.61;73.03
60089;BME280;45961;53.574;55.878;2023-07-29T01:53:53;99417.31;;;21.85;71.52
60089;BME280;45961;53.574;55.878;2023-07-29T01:54:55;99418.22;;;22.21;70.40
60089;BME280;45961;53.574;55.878;2023-07-29T01:55:56;99409.81;;;22.30;69.24
60089;BME280;45961;53.574;55.878;2023-07-29T01:56:57;99409.38;;;22.55;68.72
60089;BME280;45961;53.574;55.878;2023-07-29T01:57:58;99400.03;;;22.65;68.17
60089;BME280;45961;53.574;55.878;2023-07-29T01:59:00;99407.75;;;22.52;68.56
60089;BME280;45961;53.574;55.878;2023-07-29T02:00:02;99406.53;;;22.42;69.24
60089;BME280;45961;53.574;55.878;2023-07-29T02:01:14;99405.94;;;22.37;69.34
60089;BME280;45961;53.574;55.878;2023-07-29T02:02:17;99397.97;;;22.54;69.60
60089;BME280;45961;53.574;55.878;2023-07-29T02:03:18;99403.94;;;22.58;69.13
60089;BME280;45961;53.574;55.878;2023-07-29T02:04:19;99403.13;;;22.73;68.60
60089;BME280;45961;53.574;55.878;2023-07-29T02:05:20;99395.81;;;22.78;68.60
60089;BME280;45961;53.574;55.878;2023-07-29T02:06:21;99397.63;;;22.94;68.54
60089;BME280;45961;53.574;55.878;2023-07-29T02:07:21;99398.53;;;22.77;69.19
60089;BME280;45961;53.574;55.878;2023-07-29T02:08:22;99398.81;;;22.88;69.03
60089;BME280;45961;53.574;55.878;2023-07-29T02:09:23;99393.63;;;23.18;68.76
60089;BME280;45961;53.574;55.878;2023-07-29T02:10:24;99399.28;;;23.28;67.98
60089;BME280;45961;53.574;55.878;2023-07-29T02:11:25;99394.00;;;23.28;67.93
60089;BME280;45961;53.574;55.878;2023-07-29T02:12:28;99390.47;;;22.80;68.71
60089;BME280;45961;53.574;55.878;2023-07-29T02:13:29;99391.81;;;22.87;69.62
60089;BME280;45961;53.574;55.878;2023-07-29T02:14:30;99399.19;;;23.13;69.05
60089;BME280;45961;53.574;55.878;2023-07-29T02:15:31;99391.00;;;23.18;68.77
60089;BME280;45961;53.574;55.878;2023-07-29T02:16:31;99401.56;;;23.18;68.98
60089;BME280;45961;53.574;55.878;2023-07-29T02:17:54;99405.72;;;23.38;68.26
60089;BME280;45961;53.574;55.878;2023-07-29T02:18:55;99403.50;;;23.46;68.10
60089;BME280;45961;53.574;55.878;2023-07-29T02:19:56;99410.47;;;23.47;67.80
60089;BME280;45961;53.574;55.878;2023-07-29T02:20:57;99400.97;;;23.29;67.86
60089;BME280;45961;53.574;55.878;2023-07-29T02:21:58;99406.50;;;23.40;68.59
60089;BME280;45961;53.574;55.878;2023-07-29T02:22:59;99408.13;;;23.88;67.44
60089;BME280;45961;53.574;55.878;2023-07-29T02:24:00;99411.00;;;23.84;66.89
60089;BME280;45961;53.574;55.878;2023-07-29T02:25:00;99405.09;;;24.25;65.98
60089;BME280;45961;53.574;55.878;2023-07-29T02:26:01;99404.09;;;24.11;65.64
60089;BME280;45961;53.574;55.878;2023-07-29T02:27:02;99413.13;;;23.93;65.68
60089;BME280;45961;53.574;55.878;2023-07-29T02:28:03;99403.59;;;23.91;65.99
60089;BME280;45961;53.574;55.878;2023-07-29T02:29:04;99400.88;;;24.06;66.02
60089;BME280;45961;53.574;55.878;2023-07-29T02:30:05;99398.97;;;23.94;65.28
60089;BME280;45961;53.574;55.878;2023-07-29T02:31:16;99399.97;;;23.77;65.97
60089;BME280;45961;53.574;55.878;2023-07-29T02:32:17;99398.38;;;23.43;67.19
60089;BME280;45961;53.574;55.878;2023-07-29T02:33:18;99398.75;;;23.37;67.47
60089;BME280;45961;53.574;55.878;2023-07-29T02:34:19;99398.53;;;23.72;66.97
60089;BME280;45961;53.574;55.878;2023-07-29T02:35:20;99396.72;;;24.02;65.99
60089;BME280;45961;53.574;55.878;2023-07-29T02:36:21;99408.19;;;24.31;65.21
60089;BME280;45961;53.574;55.878;2023-07-29T02:37:22;99399.22;;;24.34;64.95
60089;BME280;45961;53.574;55.878;2023-07-29T02:38:22;99406.91;;;23.94;65.18
60089;BME280;45961;53.574;55.878;2023-07-29T02:39:23;99405.44;;;23.74;66.10
60089;BME280;45961;53.574;55.878;2023-07-29T02:40:24;99397.75;;;24.00;65.76
60089;BME280;45961;53.574;55.878;2023-07-29T02:41:27;99398.72;;;23.69;66.42
60089;BME280;45961;53.574;55.878;2023-07-29T02:42:28;99395.75;;;23.89;65.93
60089;BME280;45961;53.574;55.878;2023-07-29T02:43:29;99386.72;;;24.07;65.64
60089;BME280;45961;53.574;55.878;2023-07-29T02:44:29;99390.19;;;24.38;64.78
60089;BME280;45961;53.574;55.878;2023-07-29T02:45:31;99388.22;;;23.97;65.14
60089;BME280;45961;53.574;55.878;2023-07-29T02:46:32;99382.66;;;24.16;65.34
60089;BME280;45961;53.574;55.878;2023-07-29T02:47:33;99379.09;;;24.17;65.33
60089;BME280;45961;53.574;55.878;2023-07-29T02:48:34;99385.81;;;24.08;66.00
60089;BME280;45961;53.574;55.878;2023-07-29T02:49:35;99388.84;;;24.17;66.24
60089;BME280;45961;53.574;55.878;2023-07-29T02:50:35;99378.66;;;24.39;65.87
60089;BME280;45961;53.574;55.878;2023-07-29T02:51:36;99376.78;;;24.41;65.90
60089;BME280;45961;53.574;55.878;2023-07-29T02:52:37;99382.66;;;24.60;65.60
60089;BME280;45961;53.574;55.878;2023-07-29T02:53:41;99378.50;;;24.56;65.84
60089;BME280;45961;53.574;55.878;2023-07-29T02:54:43;99384.13;;;24.93;64.90
60089;BME280;45961;53.574;55.878;2023-07-29T02:55:44;99378.31;;;25.15;63.92
60089;BME280;45961;53.574;55.878;2023-07-29T02:56:44;99375.34;;;25.34;63.15
60089;BME280;45961;53.574;55.878;2023-07-29T02:57:45;99374.38;;;25.62;62.34
60089;BME280;45961;53.574;55.878;2023-07-29T02:58:46;99373.66;;;25.33;62.59
60089;BME280;45961;53.574;55.878;2023-07-29T02:59:48;99376.50;;;25.70;62.11
60089;BME280;45961;53.574;55.878;2023-07-29T03:00:49;99377.59;;;25.80;61.80
60089;BME280;45961;53.574;55.878;2023-07-29T03:01:51;99367.25;;;26.15;61.18
60089;BME280;45961;53.574;55.878;2023-07-29T03:02:54;99374.56;;;26.24;60.36
60089;BME280;45961;53.574;55.878;2023-07-29T03:03:55;99368.72;;;26.32;59.58
60089;BME280;45961;53.574;55.878;2023-07-29T03:04:56;99363.84;;;26.39;59.07
60089;BME280;45961;53.574;55.878;2023-07-29T03:05:58;99373.19;;;26.19;59.42
60089;BME280;45961;53.574;55.878;2023-07-29T03:06:59;99372.97;;;25.96;59.57
60089;BME280;45961;53.574;55.878;2023-07-29T03:08:00;99372.59;;;25.75;60.05
60089;BME280;45961;53.574;55.878;2023-07-29T03:09:01;99374.69;;;25.97;60.51
60089;BME280;45961;53.574;55.878;2023-07-29T03:10:02;99375.09;;;26.04;60.09
60089;BME280;45961;53.574;55.878;2023-07-29T03:11:05;99376.06;;;26.03;60.03
60089;BME280;45961;53.574;55.878;2023-07-29T03:12:06;99381.28;;;26.30;59.59
60089;BME280;45961;53.574;55.878;2023-07-29T03:13:07;99379.44;;;25.92;59.57
60089;BME280;45961;53.574;55.878;2023-07-29T03:14:08;99373.53;;;26.27;59.03
60089;BME280;45961;53.574;55.878;2023-07-29T03:15:09;99372.75;;;26.25;59.43
60089;BME280;45961;53.574;55.878;2023-07-29T03:16:10;99369.81;;;26.55;58.29
60089;BME280;45961;53.574;55.878;2023-07-29T03:17:13;99365.34;;;26.43;58.54
60089;BME280;45961;53.574;55.878;2023-07-29T03:18:14;99367.13;;;26.68;58.33
60089;BME280;45961;53.574;55.878;2023-07-29T03:19:15;99368.22;;;26.52;57.98
60089;BME280;45961;53.574;55.878;2023-07-29T03:20:16;99372.25;;;26.45;57.79
60089;BME280;45961;53.574;55.878;2023-07-29T03:21:18;99363.44;;;26.45;57.96
60089;BME280;45961;53.574;55.878;2023-07-29T03:22:19;99369.06;;;26.15;58.44
60089;BME280;45961;53.574;55.878;2023-07-29T03:23:19;99368.31;;;26.13;58.87
60089;BME280;45961;53.574;55.878;2023-07-29T03:24:20;99363.75;;;26.27;58.72
60089;BME280;45961;53.574;55.878;2023-07-29T03:25:21;99363.00;;;26.38;58.60
60089;BME280;45961;53.574;55.878;2023-07-29T03:26:22;99363.44;;;26.45;57.90
60089;BME280;45961;53.574;55.878;2023-07-29T03:27:23;99374.16;;;26.18;58.47
60089;BME280;45961;53.574;55.878;2023-07-29T03:28:24;99374.25;;;26.29;58.56
60089;BME280;45961;53.574;55.878;2023-07-29T03:29:25;99367.25;;;26.41;58.18
60089;BME280;45961;53.574;55.878;2023-07-29T03:30:26;99372.88;;;25.98;59.70
60089;BME280;45961;53.574;55.878;2023-07-29T03:31:27;99371.91;;;26.12;58.68
60089;BME280;45961;53.574;55.878;2023-07-29T03:32:28;99379.22;;;26.08;58.75
60089;BME280;45961;53.574;55.878;2023-07-29T03:33:29;99382.44;;;26.13;58.95
60089;BME280;45961;53.574;55.878;2023-07-29T03:34:30;99385.19;;;26.37;58.61
60089;BME280;45961;53.574;55.878;2023-07-29T03:35:30;99386.59;;;26.30;58.37
60089;BME280;45961;53.574;55.878;2023-07-29T03:36:31;99389.63;;;26.24;58.42
60089;BME280;45961;53.574;55.878;2023-07-29T03:37:32;99382.03;;;26.45;58.19
60089;BME280;45961;53.574;55.878;2023-07-29T03:38:33;99384.50;;;26.85;57.19
60089;BME280;45961;53.574;55.878;2023-07-29T03:39:35;99382.34;;;26.66;57.12
60089;BME280;45961;53.574;55.878;2023-07-29T03:40:37;99382.94;;;26.82;56.93
60089;BME280;45961;53.574;55.878;2023-07-29T03:41:37;99382.44;;;27.01;56.56
60089;BME280;45961;53.574;55.878;2023-07-29T03:42:39;99394.28;;;26.84;55.93
60089;BME280;45961;53.574;55.878;2023-07-29T03:43:39;99393.47;;;26.71;56.26
60089;BME280;45961;53.574;55.878;2023-07-29T03:44:41;99393.03;;;26.39;57.06
60089;BME280;45961;53.574;55.878;2023-07-29T03:45:41;99390.22;;;26.54;56.85
60089;BME280;45961;53.574;55.878;2023-07-29T03:46:42;99390.28;;;26.53;56.83
60089;BME280;45961;53.574;55.878;2023-07-29T03:47:44;99392.88;;;26.54;56.95
60089;BME280;45961;53.574;55.878;2023-07-29T03:48:45;99388.47;;;26.79;56.63
60089;BME280;45961;53.574;55.878;2023-07-29T03:49:46;99385.31;;;26.74;56.34
60089;BME280;45961;53.574;55.878;2023-07-29T03:50:47;99384.31;;;26.88;56.17
60089;BME280;45961;53.574;55.878;2023-07-29T03:51:48;99387.66;;;27.15;55.90
60089;BME280;45961;53.574;55.878;2023-07-29T03:52:49;99384.78;;;27.42;54.50
60089;BME280;45961;53.574;55.878;2023-07-29T03:53:50;99388.28;;;27.43;54.31
60089;BME280;45961;53.574;55.878;2023-07-29T03:54:51;99386.63;;;27.29;54.10
60089;BME280;45961;53.574;55.878;2023-07-29T03:55:52;99383.41;;;27.13;55.16
60089;BME280;45961;53.574;55.878;2023-07-29T03:56:52;99392.50;;;27.21;55.23
60089;BME280;45961;53.574;55.878;2023-07-29T03:57:53;99384.53;;;27.45;54.94
60089;BME280;45961;53.574;55.878;2023-07-29T03:59:01;99388.28;;;27.19;54.84
60089;BME280;45961;53.574;55.878;2023-07-29T04:00:02;99392.50;;;26.72;56.26
60089;BME280;45961;53.574;55.878;2023-07-29T04:01:05;99389.28;;;26.92;55.09
60089;BME280;45961;53.574;55.878;2023-07-29T04:02:06;99399.47;;;27.11;54.86
60089;BME280;45961;53.574;55.878;2023-07-29T04:03:08;99388.91;;;27.10;54.90
60089;BME280;45961;53.574;55.878;2023-07-29T04:04:09;99390.44;;;27.14;55.23
60089;BME280;45961;53.574;55.878;2023-07-29T04:05:10;99391.31;;;27.25;54.54
60089;BME280;45961;53.574;55.878;2023-07-29T04:06:11;99393.19;;;27.36;54.31
60089;BME280;45961;53.574;55.878;2023-07-29T04:07:12;99386.53;;;27.30;54.47
60089;BME280;45961;53.574;55.878;2023-07-29T04:08:13;99382.34;;;27.39;54.42
60089;BME280;45961;53.574;55.878;2023-07-29T04:09:14;99378.72;;;27.03;54.72
60089;BME280;45961;53.574;55.878;2023-07-29T04:10:15;99382.69;;;26.98;55.45
60089;BME280;45961;53.574;55.878;2023-07-29T04:11:16;99375.28;;;27.27;55.20
60089;BME280;45961;53.574;55.878;2023-07-29T04:12:16;99366.41;;;27.39;54.42
60089;BME280;45961;53.574;55.878;2023-07-29T04:13:17;99369.53;;;27.68;53.99
60089;BME280;45961;53.574;55.878;2023-07-29T04:14:18;99370.53;;;27.43;54.52
60089;BME280;45961;53.574;55.878;2023-07-29T04:15:19;99369.88;;;27.64;54.09
60089;BME280;45961;53.574;55.878;2023-07-29T04:16:20;99367.41;;;27.49;54.41
60089;BME280;45961;53.574;55.878;2023-07-29T04:17:21;99366.38;;;27.63;55.01
60089;BME280;45961;53.574;55.878;2023-07-29T04:18:25;99368.53;;;27.58;54.99
60089;BME280;45961;53.574;55.878;2023-07-29T04:19:30;99370.81;;;27.75;54.72
60089;BME280;45961;53.574;55.878;2023-07-29T04:20:31;99371.19;;;27.82;54.00
60089;BME280;45961;53.574;55.878;2023-07-29T04:21:34;99372.63;;;27.75;53.91
60089;BME280;45961;53.574;55.878;2023-07-29T04:22:35;99374.00;;;27.68;54.21
60089;BME280;45961;53.574;55.878;2023-07-29T04:23:35;99373.34;;;27.77;54.05
60089;BME280;45961;53.574;55.878;2023-07-29T04:24:37;99375.59;;;27.70;53.99
60089;BME280;45961;53.574;55.878;2023-07-29T04:25:38;99368.69;;;27.68;54.35
60089;BME280;45961;53.574;55.878;2023-07-29T04:26:39;99362.13;;;27.85;54.34
60089;BME280;45961;53.574;55.878;2023-07-29T04:27:40;99364.22;;;28.03;53.90
60089;BME280;45961;53.574;55.878;2023-07-29T04:28:41;99368.44;;;28.06;53.67
60089;BME280;45961;53.574;55.878;2023-07-29T04:29:42;99369.91;;;27.99;53.39
60089;BME280;45961;53.574;55.878;2023-07-29T04:30:43;99370.72;;;27.88;53.84
60089;BME280;45961;53.574;55.878;2023-07-29T04:31:44;99370.41;;;28.04;53.86
60089;BME280;45961;53.574;55.878;2023-07-29T04:32:44;99363.03;;;28.08;54.08
60089;BME280;45961;53.574;55.878;2023-07-29T04:33:48;99369.31;;;28.18;53.37
60089;BME280;45961;53.574;55.878;2023-07-29T04:34:49;99367.25;;;27.99;53.54
60089;BME280;45961;53.574;55.878;2023-07-29T04:35:50;99366.31;;;28.11;53.71
60089;BME280;45961;53.574;55.878;2023-07-29T04:36:51;99371.72;;;28.10;53.12
60089;BME280;45961;53.574;55.878;2023-07-29T04:37:52;99366.19;;;28.24;53.12
60089;BME280;45961;53.574;55.878;2023-07-29T04:38:52;99359.72;;;28.39;52.79
60089;BME280;45961;53.574;55.878;2023-07-29T04:39:53;99358.00;;;28.38;53.14
60089;BME280;45961;53.574;55.878;2023-07-29T04:40:54;99359.97;;;28.01;53.35
60089;BME280;45961;53.574;55.878;2023-07-29T04:41:55;99361.59;;;28.15;53.47
60089;BME280;45961;53.574;55.878;2023-07-29T04:42:57;99353.47;;;28.16;53.27
60089;BME280;45961;53.574;55.878;2023-07-29T04:44:00;99358.91;;;28.03;53.29
60089;BME280;45961;53.574;55.878;2023-07-29T04:45:01;99355.28;;;28.16;52.90
60089;BME280;45961;53.574;55.878;2023-07-29T04:46:02;99359.28;;;28.10;52.17
60089;BME280;45961;53.574;55.878;2023-07-29T04:47:03;99350.09;;;28.14;52.35
60089;BME280;45961;53.574;55.878;2023-07-29T04:48:04;99343.69;;;28.28;52.12
60089;BME280;45961;53.574;55.878;2023-07-29T04:49:05;99359.16;;;28.12;51.84
60089;BME280;45961;53.574;55.878;2023-07-29T04:50:06;99357.22;;;28.25;52.52
60089;BME280;45961;53.574;55.878;2023-07-29T04:51:07;99353.59;;;28.26;52.22
60089;BME280;45961;53.574;55.878;2023-07-29T04:52:08;99353.47;;;28.16;51.11
60089;BME280;45961;53.574;55.878;2023-07-29T04:53:08;99354.81;;;28.11;51.38
60089;BME280;45961;53.574;55.878;2023-07-29T04:54:09;99343.69;;;28.28;50.98
60089;BME280;45961;53.574;55.878;2023-07-29T04:55:10;99353.66;;;28.48;50.82
60089;BME280;45961;53.574;55.878;2023-07-29T04:56:11;99349.78;;;28.41;51.03
60089;BME280;45961;53.574;55.878;2023-07-29T04:57:12;99357.91;;;28.51;51.04
60089;BME280;45961;53.574;55.878;2023-07-29T04:58:13;99352.66;;;28.38;51.10
60089;BME280;45961;53.574;55.878;2023-07-29T04:59:13;99353.28;;;28.42;51.24
60089;BME280;45961;53.574;55.878;2023-07-29T05:00:14;99349.41;;;28.46;51.13
60089;BME280;45961;53.574;55.878;2023-07-29T05:01:15;99355.84;;;28.55;51.49
60089;BME280;45961;53.574;55.878;2023-07-29T05:02:16;99358.00;;;28.61;50.88
60089;BME280;45961;53.574;55.878;2023-07-29T05:03:17;99355.81;;;28.66;51.36
60089;BME280;45961;53.574;55.878;2023-07-29T05:04:18;99348.81;;;28.53;50.81
60089;BME280;45961;53.574;55.878;2023-07-29T05:05:19;99349.63;;;28.76;50.84
60089;BME280;45961;53.574;55.878;2023-07-29T05:06:20;99350.94;;;29.05;51.28
60089;BME280;45961;53.574;55.878;2023-07-29T05:07:21;99343.66;;;29.07;52.14
60089;BME280;45961;53.574;55.878;2023-07-29T05:08:22;99342.47;;;29.11;52.37
60089;BME280;45961;53.574;55.878;2023-07-29T05:09:23;99344.63;;;29.06;52.36
60089;BME280;45961;53.574;55.878;2023-07-29T05:10:24;99346.59;;;28.92;51.59
60089;BME280;45961;53.574;55.878;2023-07-29T05:11:25;99344.91;;;28.91;50.81
60089;BME280;45961;53.574;55.878;2023-07-29T05:12:26;99339.44;;;28.93;51.89
60089;BME280;45961;53.574;55.878;2023-07-29T05:13:26;99337.25;;;29.09;51.88
60089;BME280;45961;53.574;55.878;2023-07-29T05:14:30;99335.56;;;29.08;51.18
60089;BME280;45961;53.574;55.878;2023-07-29T05:15:30;99330.59;;;28.92;51.02
60089;BME280;45961;53.574;55.878;2023-07-29T05:16:31;99341.28;;;28.70;50.22
60089;BME280;45961;53.574;55.878;2023-07-29T05:17:32;99336.97;;;28.46;50.32
60089;BME280;45961;53.574;55.878;2023-07-29T05:18:33;99327.88;;;28.38;51.25
60089;BME280;45961;53.574;55.878;2023-07-29T05:19:34;99329.94;;;28.57;50.97
60089;BME280;45961;53.574;55.878;2023-07-29T05:20:34;99324.00;;;28.64;50.93
60089;BME280;45961;53.574;55.878;2023-07-29T05:21:36;99325.28;;;28.81;50.95
60089;BME280;45961;53.574;55.878;2023-07-29T05:22:39;99316.94;;;28.97;50.37
60089;BME280;45961;53.574;55.878;2023-07-29T05:23:40;99323.31;;;28.94;49.68
60089;BME280;45961;53.574;55.878;2023-07-29T05:24:41;99318.72;;;29.08;49.65